createdAt,value
2019-04-29T00:02:19.635Z,10.47
2019-04-29T00:04:48.376Z,10.93
2019-04-29T00:07:15.811Z,10.70
2019-04-29T00:09:43.314Z,10.87
2019-04-29T00:12:10.492Z,10.10
2019-04-29T00:14:39.619Z,10.50
2019-04-29T00:17:14.305Z,9.67
2019-04-29T00:20:00.877Z,10.33
2019-04-29T00:22:29.650Z,10.77
2019-04-29T00:24:56.599Z,11.77
2019-04-29T00:27:23.725Z,11.90
2019-04-29T00:29:50.699Z,12.07
2019-04-29T00:32:17.685Z,11.80
2019-04-29T00:34:44.742Z,10.63
2019-04-29T00:37:22.958Z,12.00
2019-04-29T00:40:12.526Z,11.43
2019-04-29T00:43:04.970Z,10.73
2019-04-29T00:45:31.886Z,11.40
2019-04-29T00:47:58.860Z,10.53
2019-04-29T00:50:25.819Z,10.00
2019-04-29T00:52:52.824Z,11.57
2019-04-29T00:55:22.649Z,11.80
2019-04-29T00:57:49.621Z,12.13
2019-04-29T01:00:26.559Z,11.20
2019-04-29T01:02:53.542Z,11.50
2019-04-29T01:05:20.505Z,11.17
2019-04-29T01:07:47.687Z,9.13
2019-04-29T01:10:14.958Z,9.70
2019-04-29T01:12:41.955Z,11.23
2019-04-29T01:15:08.882Z,11.17
2019-04-29T01:17:35.848Z,10.70
2019-04-29T01:20:03.102Z,11.10
2019-04-29T01:22:30.554Z,10.60
2019-04-29T01:24:57.500Z,10.43
2019-04-29T01:27:30.875Z,10.53
2019-04-29T01:29:57.819Z,10.70
2019-04-29T01:32:24.778Z,9.03
2019-04-29T01:34:53.429Z,9.80
2019-04-29T01:37:23.278Z,9.73
2019-04-29T01:40:12.334Z,10.90
2019-04-29T01:42:40.796Z,9.70
2019-04-29T01:45:08.438Z,10.50
2019-04-29T01:47:35.344Z,9.67
2019-04-29T01:50:02.622Z,8.80
2019-04-29T01:52:29.571Z,10.83
2019-04-29T01:54:56.572Z,9.33
2019-04-29T01:57:23.502Z,9.40
2019-04-29T01:59:51.696Z,10.50
2019-04-29T02:02:18.608Z,9.93
2019-04-29T02:04:45.567Z,9.73
2019-04-29T02:07:12.932Z,9.30
2019-04-29T02:09:46.525Z,8.87
2019-04-29T02:12:13.477Z,9.17
2019-04-29T02:14:40.621Z,8.40
2019-04-29T02:17:07.559Z,8.97
2019-04-29T02:19:34.531Z,8.03
2019-04-29T02:22:11.575Z,8.10
2019-04-29T02:24:40.535Z,8.47
2019-04-29T02:27:07.470Z,7.60
2019-04-29T02:29:34.426Z,7.97
2019-04-29T02:32:01.357Z,7.37
2019-04-29T02:34:28.328Z,6.50
2019-04-29T02:36:56.194Z,7.20
2019-04-29T02:39:35.300Z,6.47
2019-04-29T02:42:28.325Z,7.80
2019-04-29T02:44:57.973Z,7.40
2019-04-29T02:47:24.895Z,7.67
2019-04-29T02:49:51.845Z,7.20
2019-04-29T02:52:18.753Z,8.00
2019-04-29T02:54:47.994Z,7.70
2019-04-29T02:57:24.728Z,8.03
2019-04-29T02:59:55.670Z,7.07
2019-04-29T03:02:30.428Z,7.80
2019-04-29T03:05:15.044Z,8.13
2019-04-29T03:07:42.113Z,6.37
2019-04-29T03:10:09.262Z,7.50
2019-04-29T03:12:36.170Z,7.17
2019-04-29T03:15:03.853Z,7.40
2019-04-29T03:17:30.779Z,6.77
2019-04-29T03:20:12.406Z,7.27
2019-04-29T03:22:40.413Z,7.07
2019-04-29T03:25:07.564Z,6.83
2019-04-29T03:27:34.480Z,6.83
2019-04-29T03:30:01.452Z,6.50
2019-04-29T03:32:28.399Z,6.57
2019-04-29T03:34:55.362Z,7.20
2019-04-29T03:37:22.287Z,6.87
2019-04-29T03:39:49.217Z,7.10
2019-04-29T03:42:16.138Z,7.83
2019-04-29T03:44:43.131Z,7.03
2019-04-29T03:47:10.059Z,7.03
2019-04-29T03:49:37.008Z,7.87
2019-04-29T03:52:03.923Z,7.63
2019-04-29T03:54:30.855Z,6.90
2019-04-29T03:56:57.777Z,6.40
2019-04-29T03:59:24.731Z,7.90
2019-04-29T04:02:14.969Z,7.37
2019-04-29T04:05:00.422Z,7.40
2019-04-29T04:07:36.302Z,8.03
2019-04-29T04:10:03.778Z,7.70
2019-04-29T04:12:30.966Z,7.17
2019-04-29T04:14:57.941Z,7.67
2019-04-29T04:17:30.962Z,8.07
2019-04-29T04:19:57.923Z,6.87
2019-04-29T04:22:25.432Z,7.63
2019-04-29T04:24:52.769Z,7.40
2019-04-29T04:27:19.719Z,8.20
2019-04-29T04:29:46.684Z,8.10
2019-04-29T04:32:13.731Z,8.90
2019-04-29T04:34:40.665Z,8.57
2019-04-29T04:37:07.606Z,8.77
2019-04-29T04:39:36.439Z,8.67
2019-04-29T04:42:03.414Z,8.60
2019-04-29T04:44:49.143Z,9.57
2019-04-29T04:47:17.590Z,7.47
2019-04-29T04:49:44.500Z,8.20
2019-04-29T04:52:11.443Z,8.97
2019-04-29T04:54:38.387Z,10.13
2019-04-29T04:57:05.421Z,11.30
2019-04-29T04:59:32.342Z,10.13
2019-04-29T05:01:59.300Z,9.17
2019-04-29T05:04:26.206Z,10.40
2019-04-29T05:06:53.152Z,10.53
2019-04-29T05:09:20.071Z,9.53
2019-04-29T05:11:47.029Z,9.60
2019-04-29T05:14:13.946Z,10.00
2019-04-29T05:16:40.888Z,10.70
2019-04-29T05:19:07.805Z,10.97
2019-04-29T05:21:34.750Z,10.60
2019-04-29T05:24:01.671Z,10.67
2019-04-29T05:26:28.609Z,11.30
2019-04-29T05:28:55.522Z,11.60
2019-04-29T05:31:22.473Z,12.13
2019-04-29T05:33:49.387Z,11.87
2019-04-29T05:36:24.041Z,11.00
2019-04-29T05:38:54.083Z,10.93
2019-04-29T05:41:23.004Z,11.50
2019-04-29T05:43:57.645Z,10.93
2019-04-29T05:46:35.834Z,11.07
2019-04-29T05:49:07.335Z,10.70
2019-04-29T05:51:42.560Z,10.37
2019-04-29T05:54:10.227Z,10.73
2019-04-29T05:56:37.293Z,11.53
2019-04-29T05:59:04.318Z,12.30
2019-04-29T06:01:31.310Z,12.90
2019-04-29T06:03:58.323Z,11.60
2019-04-29T06:06:25.293Z,11.40
2019-04-29T06:08:52.242Z,11.13
2019-04-29T06:11:19.338Z,11.80
2019-04-29T06:13:46.266Z,13.20
2019-04-29T06:16:15.832Z,11.73
2019-04-29T06:18:42.098Z,12.00
2019-04-29T06:21:09.768Z,13.10
2019-04-29T06:23:36.749Z,12.83
2019-04-29T06:26:03.709Z,13.03
2019-04-29T06:28:30.626Z,13.50
2019-04-29T06:30:57.752Z,13.20
2019-04-29T06:33:29.134Z,13.90
2019-04-29T06:35:56.695Z,12.90
2019-04-29T06:38:22.378Z,12.80
2019-04-29T06:40:49.304Z,13.00
2019-04-29T06:43:17.121Z,13.10
2019-04-29T06:45:44.185Z,14.33
2019-04-29T06:48:11.132Z,14.70
2019-04-29T06:50:38.110Z,14.30
2019-04-29T06:53:05.101Z,13.80
2019-04-29T06:55:32.007Z,13.83
2019-04-29T06:57:58.959Z,14.00
2019-04-29T07:00:25.881Z,13.63
2019-04-29T07:02:52.841Z,14.27
2019-04-29T07:05:19.763Z,13.07
2019-04-29T07:07:46.703Z,14.10
2019-04-29T07:10:16.580Z,14.27
2019-04-29T07:12:47.307Z,15.60
2019-04-29T07:15:12.217Z,14.20
2019-04-29T07:17:41.289Z,17.17
2019-04-29T07:20:09.920Z,16.73
2019-04-29T07:22:36.873Z,15.00
2019-04-29T07:25:04.254Z,15.40
2019-04-29T07:27:34.494Z,15.77
2019-04-29T07:30:01.695Z,15.70
2019-04-29T07:32:32.320Z,16.10
2019-04-29T07:34:58.832Z,18.00
2019-04-29T07:37:25.780Z,17.60
2019-04-29T07:39:52.694Z,16.20
2019-04-29T07:42:19.640Z,15.97
2019-04-29T07:45:04.730Z,17.10
2019-04-29T07:47:31.824Z,16.80
2019-04-29T07:49:58.787Z,16.70
2019-04-29T07:52:25.779Z,15.90
2019-04-29T07:54:55.981Z,16.80
2019-04-29T07:57:21.553Z,15.77
2019-04-29T07:59:48.475Z,16.57
2019-04-29T08:02:15.409Z,17.10
2019-04-29T08:04:42.345Z,17.03
2019-04-29T08:07:09.419Z,17.07
2019-04-29T08:09:39.953Z,16.43
2019-04-29T08:12:07.424Z,16.70
2019-04-29T08:14:34.786Z,16.90
2019-04-29T08:17:02.618Z,15.90
2019-04-29T08:19:31.398Z,15.80
2019-04-29T08:21:58.399Z,17.10
2019-04-29T08:24:25.358Z,16.33
2019-04-29T08:26:52.420Z,15.07
2019-04-29T08:29:19.528Z,16.30
2019-04-29T08:31:46.439Z,16.40
2019-04-29T08:34:13.417Z,15.63
2019-04-29T08:36:40.368Z,14.67
2019-04-29T08:39:08.600Z,15.13
2019-04-29T08:41:36.036Z,15.67
2019-04-29T08:44:25.123Z,14.80
2019-04-29T08:46:55.630Z,15.60
2019-04-29T08:49:22.594Z,15.50
2019-04-29T08:51:49.541Z,14.43
2019-04-29T08:54:20.047Z,14.10
2019-04-29T08:57:01.673Z,12.17
2019-04-29T08:59:14.180Z,11.30
2019-04-29T09:01:41.541Z,10.67
2019-04-29T09:04:08.537Z,11.97
2019-04-29T09:06:35.439Z,10.97
2019-04-29T09:09:04.964Z,11.07
2019-04-29T09:11:32.930Z,9.80
2019-04-29T09:13:59.866Z,8.47
2019-04-29T09:16:26.791Z,7.43
2019-04-29T09:18:53.741Z,7.00
2019-04-29T09:21:20.645Z,7.10
2019-04-29T09:23:47.585Z,7.10
2019-04-29T09:26:36.687Z,6.67
2019-04-29T09:29:22.398Z,7.40
2019-04-29T09:31:49.568Z,8.00
2019-04-29T09:34:19.901Z,7.57
2019-04-29T09:36:48.289Z,6.70
2019-04-29T09:39:14.462Z,6.53
2019-04-29T09:42:03.626Z,6.93
2019-04-29T09:44:57.857Z,7.37
2019-04-29T09:47:24.776Z,8.27
2019-04-29T09:49:51.746Z,7.60
2019-04-29T09:52:18.668Z,7.70
2019-04-29T09:54:45.605Z,7.40
2019-04-29T09:57:12.526Z,7.37
2019-04-29T09:59:44.655Z,7.40
2019-04-29T10:02:33.063Z,6.63
2019-04-29T10:05:22.644Z,7.20
2019-04-29T10:07:49.572Z,6.50
2019-04-29T10:10:16.513Z,5.90
2019-04-29T10:12:43.490Z,6.70
2019-04-29T10:15:12.547Z,7.47
2019-04-29T10:18:07.974Z,6.80
2019-04-29T10:20:38.942Z,7.27
2019-04-29T10:23:05.960Z,7.17
2019-04-29T10:25:33.062Z,6.37
2019-04-29T10:27:59.988Z,7.00
2019-04-29T10:30:31.237Z,6.60
2019-04-29T10:32:56.899Z,6.53
2019-04-29T10:35:23.866Z,6.27
2019-04-29T10:37:50.807Z,6.17
2019-04-29T10:40:41.873Z,6.13
2019-04-29T10:43:21.885Z,5.20
2019-04-29T10:46:06.920Z,4.93
2019-04-29T10:48:39.508Z,5.47
2019-04-29T10:51:08.677Z,5.50
2019-04-29T10:53:35.819Z,5.00
2019-04-29T10:56:05.876Z,4.90
2019-04-29T10:58:35.631Z,5.37
2019-04-29T11:02:00.965Z,5.10
2019-04-29T11:04:22.039Z,3.97
2019-04-29T11:06:48.960Z,6.73
2019-04-29T11:09:33.951Z,5.37
2019-04-29T11:12:02.499Z,4.60
2019-04-29T11:14:33.187Z,4.37
2019-04-29T11:16:58.524Z,4.27
2019-04-29T11:19:25.659Z,4.13
2019-04-29T11:21:52.576Z,4.53
2019-04-29T11:24:39.330Z,4.30
2019-04-29T11:27:16.257Z,4.00
2019-04-29T11:29:43.222Z,5.10
2019-04-29T11:32:18.357Z,4.70
2019-04-29T11:34:55.094Z,4.53
2019-04-29T11:37:23.954Z,3.80
2019-04-29T11:39:51.694Z,4.27
2019-04-29T11:42:18.882Z,4.47
2019-04-29T11:44:45.843Z,4.07
2019-04-29T11:47:12.772Z,5.20
2019-04-29T11:49:47.930Z,4.80
2019-04-29T11:52:14.789Z,5.77
2019-04-29T11:54:41.742Z,5.30
2019-04-29T11:57:13.113Z,6.00
2019-04-29T11:59:50.834Z,5.83
2019-04-29T12:02:45.428Z,5.93
2019-04-29T12:05:26.961Z,6.77
2019-04-29T12:07:54.279Z,8.40
2019-04-29T12:10:21.329Z,6.70
2019-04-29T12:12:49.285Z,7.90
2019-04-29T12:15:35.835Z,7.60
2019-04-29T12:18:15.302Z,8.50
2019-04-29T12:21:19.781Z,10.73
2019-04-29T12:23:47.764Z,10.37
2019-04-29T12:26:15.773Z,10.57
2019-04-29T12:28:44.478Z,10.60
2019-04-29T12:31:19.313Z,9.87
2019-04-29T12:33:51.882Z,8.33
2019-04-29T12:36:18.933Z,8.10
2019-04-29T12:39:04.128Z,9.57
2019-04-29T12:41:53.216Z,9.80
2019-04-29T12:44:44.091Z,8.57
2019-04-29T12:47:28.869Z,7.73
2019-04-29T12:49:55.864Z,7.27
2019-04-29T12:52:23.161Z,8.10
2019-04-29T12:54:50.616Z,6.87
2019-04-29T12:57:23.583Z,7.90
2019-04-29T12:59:48.736Z,7.20
2019-04-29T13:02:37.139Z,7.67
2019-04-29T13:05:15.755Z,8.67
2019-04-29T13:08:04.870Z,7.30
2019-04-29T13:10:45.296Z,8.77
2019-04-29T13:13:15.613Z,8.70
2019-04-29T13:15:54.547Z,9.10
2019-04-29T14:29:32.121Z,13.83
2019-04-29T14:32:01.288Z,14.50
2019-04-29T14:34:40.500Z,14.33
2019-04-29T14:37:21.304Z,15.60
2019-04-29T14:39:37.741Z,15.70
2019-04-29T14:42:13.308Z,17.90
2019-04-29T14:44:47.354Z,16.67
2019-04-29T14:57:39.784Z,18.33
2019-04-29T15:00:10.646Z,21.30
2019-04-29T15:02:37.745Z,20.60
2019-04-29T15:05:07.178Z,21.13
2019-04-29T15:07:37.003Z,20.00
2019-04-29T15:10:06.615Z,19.30
2019-04-29T15:13:06.780Z,21.90
2019-04-29T15:16:03.800Z,19.63
2019-04-29T15:18:47.485Z,20.20
2019-04-29T15:21:32.528Z,21.90
2019-04-29T15:23:58.374Z,21.63
2019-04-29T15:26:25.284Z,22.10
2019-04-29T15:28:52.295Z,23.43
2019-04-29T15:31:22.618Z,26.83
2019-04-29T15:33:49.607Z,26.30
2019-04-29T15:36:16.793Z,23.77
2019-04-29T15:38:48.943Z,26.10
2019-04-29T15:41:12.725Z,24.40
2019-04-29T15:43:47.087Z,26.53
2019-04-29T15:46:11.286Z,25.03
2019-04-29T15:48:37.334Z,24.17
2019-04-29T15:51:04.252Z,24.37
2019-04-29T15:53:33.887Z,24.83
2019-04-29T15:56:07.181Z,24.80
2019-04-29T15:58:29.577Z,22.40
2019-04-29T16:01:11.488Z,23.87
2019-04-29T16:03:25.754Z,22.77
2019-04-29T16:06:20.506Z,24.20
2019-04-29T16:08:46.793Z,22.97
2019-04-29T16:11:34.654Z,22.33
2019-04-29T16:14:09.571Z,23.67
2019-04-29T16:16:31.262Z,21.70
2019-04-29T16:19:07.329Z,22.40
2019-04-29T16:21:32.182Z,22.23
2019-04-29T16:23:57.706Z,21.63
2019-04-29T16:26:29.602Z,23.73
2019-04-29T16:28:53.591Z,22.23
2019-04-29T16:31:20.494Z,22.13
2019-04-29T16:33:54.617Z,21.13
2019-04-29T16:36:16.276Z,21.83
2019-04-29T16:38:46.446Z,21.67
2019-04-29T16:41:31.653Z,21.33
2019-04-29T16:43:58.807Z,22.63
2019-04-29T16:46:35.394Z,19.60
2019-04-29T16:48:57.250Z,19.47
2019-04-29T16:51:24.253Z,18.80
2019-04-29T16:53:51.214Z,17.70
2019-04-29T16:56:18.129Z,17.40
2019-04-29T16:58:45.064Z,18.20
2019-04-29T17:01:12.213Z,16.03
2019-04-29T17:03:39.180Z,16.23
2019-04-29T17:06:06.117Z,15.20
2019-04-29T17:09:02.983Z,16.60
2019-04-29T17:11:27.407Z,15.97
2019-04-29T17:13:54.409Z,17.50
2019-04-29T17:16:23.213Z,17.10
2019-04-29T17:18:50.143Z,16.50
2019-04-29T17:21:17.089Z,15.30
2019-04-29T17:23:44.022Z,16.63
2019-04-29T17:26:11.074Z,14.93
2019-04-29T17:28:47.246Z,13.90
2019-04-29T17:31:40.009Z,12.50
2019-04-29T17:34:29.390Z,13.67
2019-04-29T17:36:43.320Z,13.27
2019-04-29T17:39:10.317Z,13.47
2019-04-29T17:41:37.316Z,13.13
2019-04-29T17:44:27.046Z,12.30
2019-04-29T17:47:13.728Z,10.70
2019-04-29T17:49:53.395Z,11.23
2019-04-29T17:52:25.931Z,10.47
2019-04-29T17:54:56.793Z,10.73
2019-04-29T17:57:31.663Z,13.10
2019-04-29T18:00:21.579Z,11.37
2019-04-29T18:03:20.309Z,10.03
2019-04-29T18:05:57.757Z,11.90
2019-04-29T18:08:38.201Z,9.97
2019-04-29T18:11:08.135Z,9.40
2019-04-29T18:13:35.309Z,11.50
2019-04-29T18:16:04.665Z,10.27
2019-04-29T18:18:46.344Z,11.10
2019-04-29T18:21:26.768Z,10.90
2019-04-29T18:24:12.876Z,11.20
2019-04-29T18:26:56.589Z,11.30
2019-04-29T18:29:23.591Z,11.17
2019-04-29T18:31:50.970Z,11.07
2019-04-29T18:34:17.905Z,11.10
2019-04-29T18:36:45.798Z,11.50
2019-04-29T18:39:24.972Z,10.90
2019-04-29T18:41:52.350Z,11.33
2019-04-29T18:44:20.550Z,11.13
2019-04-29T18:46:53.617Z,11.47
2019-04-29T18:49:16.442Z,11.53
2019-04-29T18:51:43.551Z,11.20
2019-04-29T18:54:10.580Z,10.63
2019-04-29T18:56:37.871Z,10.60
2019-04-29T18:59:04.933Z,11.47
2019-04-29T19:01:31.988Z,11.10
2019-04-29T19:04:04.660Z,9.47
2019-04-29T19:06:33.346Z,10.63
2019-04-29T19:09:01.670Z,10.73
2019-04-29T19:11:32.508Z,10.77
2019-04-29T19:13:58.271Z,11.23
2019-04-29T19:16:27.396Z,9.90
2019-04-29T19:18:57.719Z,11.20
2019-04-29T19:21:23.563Z,11.30
2019-04-29T19:23:57.423Z,10.77
2019-04-29T19:26:25.785Z,11.80
2019-04-29T19:28:51.689Z,16.03
2019-04-29T19:31:19.161Z,13.10
2019-04-29T19:33:46.266Z,12.70
2019-04-29T19:36:17.821Z,15.50
2019-04-29T19:38:43.323Z,15.27
2019-04-29T19:41:11.636Z,13.50
2019-04-29T19:43:40.168Z,12.97
2019-04-29T19:46:07.115Z,14.00
2019-04-29T19:48:34.768Z,12.53
2019-04-29T19:51:20.854Z,12.60
2019-04-29T19:53:35.935Z,12.50
2019-04-29T19:56:04.394Z,11.60
2019-04-29T19:58:31.819Z,12.73
2019-04-29T20:01:10.703Z,12.87
2019-04-29T20:03:35.849Z,12.30
2019-04-29T20:06:09.108Z,13.93
2019-04-29T20:08:49.862Z,13.27
2019-04-29T20:11:11.289Z,13.43
2019-04-29T20:13:31.410Z,13.80
2019-04-29T20:16:34.070Z,14.17
2019-04-29T20:19:20.294Z,14.50
2019-04-29T20:21:43.556Z,15.90
2019-04-29T20:24:15.635Z,17.20
2019-04-29T20:26:43.750Z,21.30
2019-04-29T20:29:09.089Z,18.90
2019-04-29T20:31:38.990Z,19.60
2019-04-29T20:34:06.184Z,20.20
2019-04-29T20:36:41.727Z,18.07
2019-04-29T20:39:06.517Z,18.73
2019-04-29T20:41:40.567Z,16.80
2019-04-29T20:44:05.932Z,18.03
2019-04-29T20:46:43.288Z,18.60
2019-04-29T20:49:01.206Z,17.30
2019-04-29T20:51:41.373Z,18.17
2019-04-29T20:54:08.957Z,18.80
2019-04-29T20:56:35.835Z,20.00
2019-04-29T20:59:09.101Z,19.67
2019-04-29T21:01:38.653Z,18.30
2019-04-29T21:04:05.849Z,19.80
2019-04-29T21:06:39.221Z,19.37
2019-04-29T21:09:02.535Z,17.00
2019-04-29T21:11:35.660Z,18.83
2019-04-29T21:14:20.530Z,21.30
2019-04-29T21:16:48.655Z,18.00
2019-04-29T21:19:15.568Z,21.07
2019-04-29T21:21:45.471Z,19.63
2019-04-29T21:24:13.759Z,20.60
2019-04-29T21:26:44.488Z,21.13
2019-04-29T21:29:10.665Z,23.13
2019-04-29T21:31:38.050Z,22.40
2019-04-29T21:34:05.541Z,23.50
2019-04-29T21:37:01.509Z,24.43
2019-04-29T21:39:37.884Z,26.50
2019-04-29T21:42:35.139Z,24.83
2019-04-29T21:44:58.680Z,25.27
2019-04-29T21:47:28.260Z,25.50
2019-04-29T21:49:57.713Z,25.27
2019-04-29T21:52:25.295Z,28.27
2019-04-29T21:54:52.321Z,26.00
2019-04-29T21:57:23.594Z,25.80
2019-04-29T21:59:48.678Z,26.87
2019-04-29T22:02:17.478Z,25.97
2019-04-29T22:04:45.038Z,29.40
2019-04-29T22:07:15.527Z,28.70
2019-04-29T22:09:47.270Z,28.80
2019-04-29T22:12:14.103Z,27.27
2019-04-29T22:14:45.138Z,29.17
2019-04-29T22:17:09.594Z,30.00
2019-04-29T22:19:36.639Z,28.90
2019-04-29T22:22:05.554Z,31.40
2019-04-29T22:24:32.562Z,31.57
2019-04-29T22:27:05.154Z,30.87
2019-04-29T22:29:32.159Z,31.00
2019-04-29T22:31:57.408Z,29.90
2019-04-29T22:34:25.332Z,31.57
2019-04-29T22:36:52.654Z,32.00
2019-04-29T22:39:21.751Z,31.87
2019-04-29T22:42:11.387Z,32.00
2019-04-29T22:44:38.922Z,31.90
2019-04-29T22:47:05.937Z,30.80
2019-04-29T22:49:33.540Z,30.73
2019-04-29T22:52:00.458Z,30.67
2019-04-29T22:54:27.425Z,31.07
2019-04-29T22:56:56.595Z,34.33
2019-04-29T22:59:23.298Z,31.50
2019-04-29T23:01:50.768Z,31.47
2019-04-29T23:04:18.056Z,31.53
2019-04-29T23:06:48.046Z,34.90
2019-04-29T23:11:47.372Z,33.03
2019-04-29T23:14:15.256Z,35.00
2019-04-29T23:16:42.198Z,32.80
2019-04-29T23:19:14.038Z,33.10
2019-04-29T23:22:16.898Z,32.60
2019-04-29T23:25:00.026Z,33.73
2019-04-29T23:27:26.925Z,34.57
2019-04-29T23:29:53.856Z,34.30
2019-04-29T23:32:20.762Z,32.93
2019-04-29T23:34:47.687Z,30.83
2019-04-29T23:37:14.612Z,34.33
2019-04-29T23:39:41.542Z,32.80
2019-04-29T23:42:11.992Z,34.60
2019-04-29T23:44:37.945Z,34.80
2019-04-29T23:47:10.289Z,32.40
2019-04-29T23:49:42.271Z,34.17
2019-04-29T23:52:06.715Z,34.53
2019-04-29T23:54:32.641Z,34.93
2019-04-29T23:57:16.410Z,34.00
2019-04-29T23:59:47.336Z,34.07
